Time;durP1;ratioP1;P1;durP2;ratioP2;P2;SDS_P1;SDS_P2;PMS_P1;PMS_P2;Temp;Humidity;BMP_temperature;BMP_pressure;BME280_temperature;BME280_humidity;BME280_pressure;Samples;Min_cycle;Max_cycle;Signal;HPM_P1;HPM_P2
2021/12/03 00:02:01;;;;;;;33.63;23.80;;;0.50;99.90;;;;;;5012954;28;20254;-65
2021/12/03 00:04:27;;;;;;;33.80;21.13;;;0.50;99.90;;;;;;5013017;28;20200;-66
2021/12/03 00:06:52;;;;;;;25.83;20.30;;;0.50;99.90;;;;;;5013170;28;20490;-66
2021/12/03 00:09:18;;;;;;;31.87;23.63;;;0.40;99.90;;;;;;5012995;28;20263;-66
2021/12/03 00:11:43;;;;;;;30.43;22.87;;;0.40;99.90;;;;;;5012833;28;20204;-65
2021/12/03 00:14:09;;;;;;;29.53;19.93;;;0.40;99.90;;;;;;5012630;28;20243;-66
2021/12/03 00:16:35;;;;;;;27.97;20.97;;;0.30;99.90;;;;;;5013031;28;20577;-66
2021/12/03 00:19:01;;;;;;;26.10;19.43;;;0.30;99.90;;;;;;5012829;28;20533;-65
2021/12/03 00:21:27;;;;;;;29.20;20.77;;;0.30;99.90;;;;;;5013004;28;20226;-66
2021/12/03 00:23:53;;;;;;;28.77;18.93;;;0.30;99.90;;;;;;5011468;28;20200;-66
2021/12/03 00:26:19;;;;;;;36.37;22.77;;;0.30;99.90;;;;;;5012297;28;20184;-66
2021/12/03 00:28:45;;;;;;;27.17;20.10;;;0.40;99.90;;;;;;5012322;28;20661;-65
2021/12/03 00:31:11;;;;;;;30.33;21.03;;;0.40;99.90;;;;;;5013201;28;20182;-65
2021/12/03 00:33:38;;;;;;;32.37;21.53;;;0.50;99.90;;;;;;5012019;28;20176;-65
2021/12/03 00:36:06;;;;;;;29.80;20.40;;;0.50;99.90;;;;;;5012350;28;20184;-66
2021/12/03 00:38:42;;;;;;;29.17;20.63;;;0.60;99.90;;;;;;5012550;28;20535;-66
2021/12/03 00:41:12;;;;;;;28.57;20.57;;;0.60;99.90;;;;;;5012333;28;20179;-66
2021/12/03 00:43:44;;;;;;;26.77;20.20;;;0.70;99.90;;;;;;5012161;28;20227;-66
2021/12/03 00:46:12;;;;;;;31.33;23.37;;;0.70;99.90;;;;;;5011506;28;20183;-65
2021/12/03 00:48:38;;;;;;;27.60;20.03;;;0.90;99.90;;;;;;5012207;28;20226;-65
2021/12/03 00:51:06;;;;;;;24.63;18.53;;;1.00;99.90;;;;;;5012082;28;20180;-66
2021/12/03 00:53:32;;;;;;;30.47;20.50;;;1.20;99.90;;;;;;5012189;28;20168;-65
2021/12/03 00:55:57;;;;;;;29.43;21.53;;;1.30;99.90;;;;;;5011759;28;20206;-65
2021/12/03 00:58:23;;;;;;;27.30;18.77;;;1.40;99.90;;;;;;5012364;28;20707;-66
2021/12/03 01:00:49;;;;;;;31.27;20.33;;;1.50;99.90;;;;;;5012226;28;20179;-64
2021/12/03 01:03:15;;;;;;;27.27;21.00;;;1.50;99.90;;;;;;5012358;28;20652;-66
2021/12/03 01:05:40;;;;;;;29.00;19.43;;;1.50;99.90;;;;;;4994019;28;20241;-66
2021/12/03 01:08:06;;;;;;;23.47;17.17;;;1.60;99.90;;;;;;5012078;28;20176;-66
2021/12/03 01:10:32;;;;;;;27.37;16.47;;;1.50;99.90;;;;;;5012009;28;20173;-66
2021/12/03 01:12:58;;;;;;;28.73;18.47;;;1.50;99.90;;;;;;5011645;28;20207;-65
2021/12/03 01:15:32;;;;;;;27.40;17.90;;;1.50;99.90;;;;;;5011688;28;20200;-66
2021/12/03 01:17:58;;;;;;;24.77;17.50;;;1.40;99.90;;;;;;5011835;28;20176;-66
2021/12/03 01:20:24;;;;;;;23.13;17.63;;;1.40;99.90;;;;;;5011710;28;20266;-66
2021/12/03 01:22:53;;;;;;;30.63;19.00;;;1.30;99.90;;;;;;5011550;28;20230;-65
2021/12/03 01:25:20;;;;;;;22.67;18.50;;;1.30;99.90;;;;;;5011728;28;20207;-66
2021/12/03 01:27:47;;;;;;;27.33;17.23;;;1.30;99.90;;;;;;5011703;28;20211;-66
2021/12/03 01:30:15;;;;;;;22.67;17.87;;;1.30;99.90;;;;;;5011609;28;20629;-65
2021/12/03 01:32:41;;;;;;;19.17;17.17;;;1.20;99.90;;;;;;5011481;28;20636;-65
2021/12/03 01:35:08;;;;;;;27.30;18.97;;;1.20;99.90;;;;;;5011537;28;20286;-66
2021/12/03 01:37:34;;;;;;;18.73;16.20;;;1.30;99.90;;;;;;5018224;28;20169;-65
2021/12/03 01:40:00;;;;;;;24.57;18.33;;;1.30;99.90;;;;;;5017880;28;20184;-64
2021/12/03 01:42:25;;;;;;;27.67;18.77;;;1.30;99.90;;;;;;5017983;28;20179;-65
2021/12/03 01:44:51;;;;;;;26.97;18.63;;;1.30;99.90;;;;;;5016649;28;20210;-66
2021/12/03 01:47:17;;;;;;;18.83;16.13;;;1.30;99.90;;;;;;5018049;28;20184;-66
2021/12/03 01:49:42;;;;;;;24.03;17.23;;;1.30;99.90;;;;;;5018499;28;20251;-66
2021/12/03 01:52:08;;;;;;;18.63;16.60;;;1.40;99.90;;;;;;5017391;28;20287;-64
2021/12/03 01:54:34;;;;;;;34.83;20.77;;;1.40;99.90;;;;;;5018098;28;20665;-66
2021/12/03 01:57:00;;;;;;;23.03;20.43;;;1.30;99.90;;;;;;5000129;28;20172;-65
2021/12/03 01:59:25;;;;;;;23.93;18.47;;;1.40;99.90;;;;;;5018160;28;20172;-66
2021/12/03 02:01:51;;;;;;;19.90;17.77;;;1.50;99.90;;;;;;5017868;28;20172;-64
2021/12/03 02:04:17;;;;;;;25.80;17.73;;;1.50;99.90;;;;;;5017823;28;20199;-64
2021/12/03 02:06:42;;;;;;;25.73;17.97;;;1.60;99.90;;;;;;5018196;28;20172;-64
2021/12/03 02:09:09;;;;;;;20.03;15.83;;;1.70;99.90;;;;;;5017866;28;20180;-66
2021/12/03 02:11:35;;;;;;;24.20;17.43;;;1.80;99.90;;;;;;5017813;28;20196;-66
2021/12/03 02:14:00;;;;;;;24.30;16.43;;;1.80;99.90;;;;;;5017488;28;20196;-66
2021/12/03 02:16:26;;;;;;;26.00;17.97;;;1.90;99.90;;;;;;5017776;28;20176;-66
2021/12/03 02:18:52;;;;;;;23.17;17.83;;;1.90;99.90;;;;;;5017809;28;20180;-66
2021/12/03 02:21:19;;;;;;;20.07;17.67;;;1.90;99.90;;;;;;5017876;28;20172;-66
2021/12/03 02:23:46;;;;;;;30.60;18.50;;;1.90;99.90;;;;;;5017491;28;20192;-66
2021/12/03 02:26:12;;;;;;;24.10;15.33;;;2.00;99.90;;;;;;5017905;28;20164;-66
2021/12/03 02:28:44;;;;;;;22.77;18.60;;;2.00;99.90;;;;;;5017583;28;20183;-66
2021/12/03 02:31:12;;;;;;;22.47;15.73;;;2.10;99.90;;;;;;5017731;28;20203;-65
2021/12/03 02:33:37;;;;;;;28.50;17.67;;;2.10;99.90;;;;;;5018278;28;20179;-65
2021/12/03 02:36:05;;;;;;;20.10;16.40;;;2.10;99.90;;;;;;5017580;28;20172;-66
2021/12/03 02:38:30;;;;;;;22.70;16.83;;;2.20;99.90;;;;;;5017824;28;20183;-66
2021/12/03 02:40:56;;;;;;;23.73;16.63;;;2.20;99.90;;;;;;5017417;28;20168;-66
2021/12/03 02:43:23;;;;;;;27.30;17.50;;;2.20;99.90;;;;;;5017485;28;20229;-65
2021/12/03 02:45:51;;;;;;;29.37;16.87;;;2.30;99.90;;;;;;5016610;28;20601;-67
2021/12/03 02:48:17;;;;;;;22.17;15.20;;;2.30;99.90;;;;;;5014167;28;20191;-66
2021/12/03 02:50:43;;;;;;;22.00;15.43;;;2.30;99.90;;;;;;5014455;28;20763;-67
2021/12/03 02:53:09;;;;;;;18.17;16.07;;;2.40;99.90;;;;;;5014218;28;20303;-66
2021/12/03 02:55:35;;;;;;;18.53;16.03;;;2.40;99.90;;;;;;5014417;28;20188;-66
2021/12/03 02:58:01;;;;;;;19.23;15.00;;;2.40;99.90;;;;;;5013937;28;20244;-66
2021/12/03 03:00:27;;;;;;;21.10;16.33;;;2.50;99.90;;;;;;5014426;28;20172;-66
2021/12/03 03:02:55;;;;;;;23.97;17.20;;;2.50;99.90;;;;;;5013990;28;20188;-67
2021/12/03 03:05:23;;;;;;;22.83;17.43;;;2.50;99.90;;;;;;5014463;28;20286;-66
2021/12/03 03:07:48;;;;;;;24.03;16.17;;;2.50;99.90;;;;;;4996459;28;20184;-65
2021/12/03 03:10:18;;;;;;;20.70;16.47;;;2.50;99.90;;;;;;5014381;28;20175;-67
2021/12/03 03:12:45;;;;;;;19.43;17.47;;;2.50;99.90;;;;;;5013507;28;20291;-67
2021/12/03 03:15:12;;;;;;;20.90;18.03;;;2.60;99.90;;;;;;5014238;28;20192;-66
2021/12/03 03:17:38;;;;;;;26.70;19.30;;;2.60;99.90;;;;;;5013800;28;20188;-66
2021/12/03 03:20:06;;;;;;;21.70;17.30;;;2.60;99.90;;;;;;5013844;28;20175;-66
2021/12/03 03:22:33;;;;;;;22.00;17.83;;;2.70;99.90;;;;;;5013402;28;20185;-66
2021/12/03 03:25:02;;;;;;;22.63;18.27;;;2.70;99.90;;;;;;5013815;28;20235;-66
2021/12/03 03:27:29;;;;;;;25.73;18.87;;;2.70;99.90;;;;;;5013636;28;20204;-66
2021/12/03 03:29:55;;;;;;;26.87;19.33;;;2.70;99.90;;;;;;5013731;28;20258;-63
2021/12/03 03:32:22;;;;;;;25.87;20.13;;;2.70;99.90;;;;;;5013245;28;20199;-65
2021/12/03 03:34:47;;;;;;;27.03;19.93;;;2.70;99.90;;;;;;5013214;28;20694;-66
2021/12/03 03:37:13;;;;;;;17.80;15.93;;;2.70;99.90;;;;;;5013621;28;20324;-66
2021/12/03 03:39:40;;;;;;;22.53;17.53;;;2.70;99.90;;;;;;5013422;28;20529;-65
2021/12/03 03:42:06;;;;;;;24.90;18.50;;;2.80;99.90;;;;;;5013180;28;20176;-66
2021/12/03 03:44:33;;;;;;;23.77;17.07;;;2.80;99.90;;;;;;5012422;28;20215;-66
2021/12/03 03:47:00;;;;;;;19.40;17.20;;;2.80;99.90;;;;;;5013443;28;20242;-66
2021/12/03 03:49:27;;;;;;;19.93;16.77;;;2.80;99.90;;;;;;5013613;28;20645;-66
2021/12/03 03:51:54;;;;;;;20.87;16.63;;;2.80;99.90;;;;;;5013101;28;20262;-64
2021/12/03 03:54:20;;;;;;;23.53;17.10;;;2.90;99.90;;;;;;5012825;28;20292;-65
2021/12/03 03:56:46;;;;;;;26.07;17.13;;;2.90;99.90;;;;;;5013312;28;20697;-66
2021/12/03 03:59:12;;;;;;;21.90;16.07;;;2.90;99.90;;;;;;5012870;28;20180;-67
2021/12/03 04:01:37;;;;;;;19.70;17.03;;;2.90;99.90;;;;;;5013017;28;20250;-67
2021/12/03 04:04:04;;;;;;;19.17;17.30;;;2.90;99.90;;;;;;5012643;28;20617;-66
2021/12/03 04:06:29;;;;;;;20.27;18.10;;;2.90;99.90;;;;;;5012963;28;20191;-66
2021/12/03 04:08:55;;;;;;;28.30;17.87;;;2.90;99.90;;;;;;4995890;28;20180;-66
2021/12/03 04:11:24;;;;;;;24.20;20.13;;;3.00;99.90;;;;;;5012956;28;20607;-66
2021/12/03 04:13:50;;;;;;;22.23;16.93;;;3.00;99.90;;;;;;5012545;28;20203;-66
2021/12/03 04:16:16;;;;;;;20.33;18.00;;;3.00;99.90;;;;;;5012638;28;20180;-67
2021/12/03 04:18:42;;;;;;;21.37;15.23;;;3.00;99.90;;;;;;5012869;28;20251;-67
2021/12/03 04:21:08;;;;;;;25.40;16.10;;;3.00;99.90;;;;;;5012787;28;20832;-66
2021/12/03 04:23:34;;;;;;;28.17;16.50;;;3.00;99.90;;;;;;5012492;28;20195;-66
2021/12/03 04:25:59;;;;;;;19.07;14.60;;;3.10;99.90;;;;;;5012433;28;20262;-66
2021/12/03 04:28:25;;;;;;;18.67;16.67;;;3.10;99.90;;;;;;5012905;28;20181;-65
2021/12/03 04:30:51;;;;;;;31.43;17.43;;;3.00;99.90;;;;;;5012342;28;20184;-66
2021/12/03 04:33:19;;;;;;;23.50;16.80;;;3.00;99.90;;;;;;5012387;28;20295;-67
2021/12/03 04:35:44;;;;;;;25.90;17.10;;;3.00;99.90;;;;;;5012263;28;20238;-66
2021/12/03 04:38:10;;;;;;;22.97;18.60;;;3.00;99.90;;;;;;5012510;28;20172;-66
2021/12/03 04:40:37;;;;;;;25.07;18.00;;;3.00;99.90;;;;;;5012846;28;20172;-66
2021/12/03 04:43:04;;;;;;;27.00;18.90;;;3.00;99.90;;;;;;5012334;28;20168;-65
2021/12/03 04:45:30;;;;;;;28.10;18.73;;;3.00;99.90;;;;;;5011611;28;20215;-66
2021/12/03 04:47:58;;;;;;;32.13;19.40;;;3.00;99.90;;;;;;5012300;28;20179;-64
2021/12/03 04:50:28;;;;;;;33.90;19.83;;;3.10;99.90;;;;;;5012175;28;20168;-66
2021/12/03 04:52:55;;;;;;;20.37;17.17;;;3.10;99.90;;;;;;5012002;28;20232;-66
2021/12/03 04:55:22;;;;;;;24.10;19.17;;;3.10;99.90;;;;;;5011815;28;20202;-66
2021/12/03 04:57:53;;;;;;;18.17;16.33;;;3.20;99.90;;;;;;5012258;28;20168;-66
2021/12/03 05:00:32;;;;;;;28.33;19.23;;;3.10;99.90;;;;;;5011943;28;20261;-66
2021/12/03 05:03:00;;;;;;;26.27;17.00;;;3.10;99.90;;;;;;5011812;28;20180;-66
2021/12/03 05:05:30;;;;;;;20.83;18.73;;;3.10;99.90;;;;;;5011812;28;20208;-67
2021/12/03 05:07:58;;;;;;;28.90;19.80;;;3.10;99.90;;;;;;5012093;28;20673;-66
2021/12/03 05:10:29;;;;;;;19.13;17.10;;;3.10;99.90;;;;;;5011438;28;20181;-65
2021/12/03 05:12:58;;;;;;;21.90;17.57;;;3.10;99.90;;;;;;5011631;28;20203;-66
2021/12/03 05:15:24;;;;;;;25.93;17.43;;;3.10;99.90;;;;;;5012127;28;20194;-66
2021/12/03 05:17:50;;;;;;;23.73;16.87;;;3.10;99.90;;;;;;5011718;28;20684;-67
2021/12/03 05:20:15;;;;;;;23.87;17.43;;;3.20;99.90;;;;;;5011837;28;20195;-66
2021/12/03 05:22:41;;;;;;;29.77;18.70;;;3.20;99.90;;;;;;5011449;28;20176;-66
2021/12/03 05:25:08;;;;;;;26.10;18.63;;;3.20;99.90;;;;;;5011986;28;20218;-65
2021/12/03 05:27:33;;;;;;;26.40;18.20;;;3.20;99.90;;;;;;5012190;28;20184;-65
2021/12/03 05:29:59;;;;;;;22.57;16.73;;;3.20;99.90;;;;;;5011550;28;20180;-66
2021/12/03 05:32:25;;;;;;;19.20;17.03;;;3.20;99.90;;;;;;5011365;28;20203;-65
2021/12/03 05:34:50;;;;;;;22.03;16.47;;;3.20;99.90;;;;;;5011463;28;20207;-64
2021/12/03 05:37:16;;;;;;;22.83;15.17;;;3.20;99.90;;;;;;5011640;28;20666;-66
2021/12/03 05:39:42;;;;;;;24.30;16.97;;;3.20;99.90;;;;;;5011882;28;20172;-66
2021/12/03 05:42:08;;;;;;;17.67;15.77;;;3.20;99.90;;;;;;5011498;28;20180;-67
2021/12/03 05:44:34;;;;;;;22.13;16.97;;;3.30;99.90;;;;;;5011049;28;20731;-65
2021/12/03 05:47:01;;;;;;;19.47;16.87;;;3.30;99.90;;;;;;5010259;28;20645;-66
2021/12/03 05:49:27;;;;;;;24.37;16.90;;;3.30;99.90;;;;;;5011308;28;20630;-66
2021/12/03 05:51:54;;;;;;;19.83;17.53;;;3.30;99.90;;;;;;5011097;28;20200;-66
2021/12/03 05:54:20;;;;;;;17.67;15.87;;;3.40;99.90;;;;;;5010798;28;20200;-65
2021/12/03 05:56:47;;;;;;;16.73;15.13;;;3.40;99.90;;;;;;5011057;28;20645;-65
2021/12/03 05:59:12;;;;;;;16.53;14.83;;;3.50;99.90;;;;;;5011443;28;20214;-66
2021/12/03 06:01:38;;;;;;;16.50;14.73;;;3.40;99.90;;;;;;5011227;28;20168;-66
2021/12/03 06:04:04;;;;;;;14.03;12.73;;;3.50;99.90;;;;;;5010472;28;20196;-66
2021/12/03 06:06:29;;;;;;;19.23;13.50;;;3.50;99.90;;;;;;5011587;28;20176;-66
2021/12/03 06:08:57;;;;;;;14.63;13.23;;;3.40;99.90;;;;;;5011146;28;20704;-66
2021/12/03 06:11:24;;;;;;;21.87;14.43;;;3.50;99.90;;;;;;5010997;28;20226;-66
2021/12/03 06:13:49;;;;;;;19.93;13.50;;;3.50;99.90;;;;;;5011110;28;20188;-66
2021/12/03 06:16:15;;;;;;;14.30;12.97;;;3.50;99.90;;;;;;5011425;28;20172;-66
2021/12/03 06:18:41;;;;;;;14.97;13.00;;;3.50;99.90;;;;;;5011308;28;20172;-66
2021/12/03 06:21:09;;;;;;;14.70;12.67;;;3.50;99.90;;;;;;5011156;28;20179;-66
2021/12/03 06:23:36;;;;;;;15.83;12.57;;;3.50;99.90;;;;;;5013084;28;20184;-66
2021/12/03 06:26:02;;;;;;;16.30;12.93;;;3.50;99.90;;;;;;5015124;28;20179;-65
2021/12/03 06:28:30;;;;;;;15.30;13.40;;;3.40;99.90;;;;;;5014740;28;20185;-66
2021/12/03 06:30:56;;;;;;;17.20;15.40;;;3.40;99.90;;;;;;5014856;28;20338;-66
2021/12/03 06:33:21;;;;;;;14.20;12.80;;;3.40;99.90;;;;;;5014183;28;20215;-66
2021/12/03 06:35:48;;;;;;;14.50;13.27;;;3.40;99.90;;;;;;4997077;28;20180;-67
2021/12/03 06:38:15;;;;;;;14.30;12.77;;;3.40;99.90;;;;;;5014474;28;20176;-66
2021/12/03 06:40:42;;;;;;;12.93;12.03;;;3.40;99.90;;;;;;5014435;28;20618;-66
2021/12/03 06:43:08;;;;;;;13.90;12.60;;;3.30;99.90;;;;;;5014298;28;20230;-66
2021/12/03 06:45:34;;;;;;;17.63;14.37;;;3.30;99.90;;;;;;5013882;28;20192;-66
2021/12/03 06:48:00;;;;;;;16.63;12.97;;;3.30;99.90;;;;;;5014230;28;20676;-67
2021/12/03 06:50:26;;;;;;;14.13;12.90;;;3.40;99.90;;;;;;5013580;28;20680;-66
2021/12/03 06:52:59;;;;;;;25.57;13.67;;;3.30;99.90;;;;;;5013308;28;20199;-67
2021/12/03 06:55:25;;;;;;;15.47;13.73;;;3.40;99.90;;;;;;5014159;28;20193;-67
2021/12/03 06:57:51;;;;;;;14.23;12.83;;;3.30;99.90;;;;;;5002981;28;20177;-66
2021/12/03 07:00:17;;;;;;;14.00;12.73;;;3.40;99.90;;;;;;5013350;28;20631;-66
2021/12/03 07:02:43;;;;;;;16.00;14.30;;;3.40;99.90;;;;;;5013675;28;20207;-66
2021/12/03 07:05:10;;;;;;;14.07;12.90;;;3.30;99.90;;;;;;5014336;28;20200;-66
2021/12/03 07:07:36;;;;;;;13.60;12.37;;;3.40;99.90;;;;;;5013921;28;20302;-64
2021/12/03 07:10:04;;;;;;;15.77;13.00;;;3.40;99.90;;;;;;5014134;28;20547;-65
2021/12/03 07:12:32;;;;;;;13.17;12.07;;;3.40;99.90;;;;;;5013545;28;20204;-67
2021/12/03 07:14:58;;;;;;;13.27;11.87;;;3.40;99.90;;;;;;5013681;28;20544;-65
2021/12/03 07:17:29;;;;;;;13.43;11.77;;;3.40;99.90;;;;;;5014157;28;20172;-66
2021/12/03 07:19:57;;;;;;;13.57;12.17;;;3.50;99.90;;;;;;4995889;28;20183;-66
2021/12/03 07:22:23;;;;;;;15.57;13.50;;;3.50;99.90;;;;;;5013391;28;20255;-66
2021/12/03 07:24:48;;;;;;;14.43;11.73;;;3.50;99.90;;;;;;5013608;28;20330;-66
2021/12/03 07:27:14;;;;;;;13.17;12.13;;;3.50;99.90;;;;;;5013850;28;20654;-66
2021/12/03 07:29:40;;;;;;;13.13;12.03;;;3.40;99.90;;;;;;5013779;28;20250;-64
2021/12/03 07:32:06;;;;;;;12.77;11.60;;;3.40;99.90;;;;;;5013158;28;20204;-66
2021/12/03 07:34:32;;;;;;;11.80;10.60;;;3.40;99.90;;;;;;5012520;28;20215;-66
2021/12/03 07:36:58;;;;;;;12.87;10.60;;;3.30;99.90;;;;;;5013507;28;20168;-66
2021/12/03 07:39:23;;;;;;;12.30;10.57;;;3.30;99.90;;;;;;5013385;28;20167;-66
2021/12/03 07:41:49;;;;;;;12.67;11.67;;;3.30;99.90;;;;;;5013333;28;20624;-66
2021/12/03 07:44:14;;;;;;;18.17;11.10;;;3.30;99.90;;;;;;5010753;28;20265;-66
2021/12/03 07:46:40;;;;;;;10.97;10.00;;;3.30;99.90;;;;;;5013300;28;20176;-66
2021/12/03 07:49:06;;;;;;;10.97;10.07;;;3.30;99.90;;;;;;5013197;28;20677;-66
2021/12/03 07:51:31;;;;;;;12.47;11.30;;;3.30;99.90;;;;;;5013245;28;20180;-66
2021/12/03 07:53:57;;;;;;;11.40;10.50;;;3.30;99.90;;;;;;5012404;28;20204;-66
2021/12/03 07:56:23;;;;;;;11.63;10.57;;;3.30;99.90;;;;;;5013020;28;20175;-65
2021/12/03 07:58:48;;;;;;;19.73;9.83;;;3.20;99.90;;;;;;5012843;28;20211;-66
2021/12/03 08:01:14;;;;;;;10.33;9.43;;;3.20;99.90;;;;;;5013147;28;20172;-66
2021/12/03 08:03:39;;;;;;;11.97;9.33;;;3.20;99.90;;;;;;5012552;28;20204;-66
2021/12/03 08:06:09;;;;;;;11.57;10.67;;;3.20;99.90;;;;;;5012563;28;20172;-66
2021/12/03 08:08:39;;;;;;;11.40;10.43;;;3.20;99.90;;;;;;5012902;28;20176;-68
2021/12/03 08:11:05;;;;;;;13.17;11.80;;;3.20;99.90;;;;;;4995260;28;20184;-65
2021/12/03 08:13:31;;;;;;;15.37;12.50;;;3.20;99.90;;;;;;5012543;28;20234;-66
2021/12/03 08:15:57;;;;;;;10.87;9.40;;;3.20;99.90;;;;;;4995196;28;20181;-66
2021/12/03 08:18:22;;;;;;;11.33;10.37;;;3.30;99.90;;;;;;5010769;28;20649;-66
2021/12/03 08:20:48;;;;;;;11.53;10.50;;;3.30;99.90;;;;;;5012796;28;20175;-65
2021/12/03 08:23:14;;;;;;;12.47;9.47;;;3.30;99.90;;;;;;5012435;28;20176;-66
2021/12/03 08:25:39;;;;;;;10.53;9.63;;;3.30;99.90;;;;;;5012299;28;20200;-66
2021/12/03 08:28:05;;;;;;;12.00;11.17;;;3.40;99.90;;;;;;5013089;28;20604;-66
2021/12/03 08:30:31;;;;;;;10.73;9.83;;;3.40;99.90;;;;;;5012633;28;20246;-66
2021/12/03 08:32:58;;;;;;;11.03;10.00;;;3.50;99.90;;;;;;5012142;28;20203;-66
2021/12/03 08:35:23;;;;;;;9.50;8.80;;;3.50;99.90;;;;;;5012711;28;20204;-65
2021/12/03 08:37:50;;;;;;;10.10;9.43;;;3.50;99.90;;;;;;5012030;28;20187;-66
2021/12/03 08:40:17;;;;;;;9.70;9.00;;;3.60;99.90;;;;;;5012344;28;20196;-66
2021/12/03 08:42:43;;;;;;;9.30;8.70;;;3.60;99.90;;;;;;5011583;28;20182;-66
2021/12/03 08:45:09;;;;;;;10.67;9.83;;;3.60;99.90;;;;;;5010961;28;20326;-65
2021/12/03 08:47:36;;;;;;;9.80;8.93;;;3.70;99.90;;;;;;5012284;28;20172;-66
2021/12/03 08:50:07;;;;;;;8.67;8.03;;;3.70;99.90;;;;;;5012288;28;20172;-66
2021/12/03 08:52:48;;;;;;;9.53;8.83;;;3.70;99.90;;;;;;5011757;28;20204;-65
2021/12/03 08:55:13;;;;;;;9.10;8.50;;;3.80;99.90;;;;;;5011502;28;20731;-66
2021/12/03 08:57:39;;;;;;;9.00;8.20;;;3.80;99.90;;;;;;5012234;28;20251;-66
2021/12/03 09:00:17;;;;;;;8.67;8.00;;;3.90;99.90;;;;;;5009989;28;20219;-66
2021/12/03 09:02:43;;;;;;;9.83;9.03;;;3.90;99.90;;;;;;4992228;28;20173;-66
2021/12/03 09:05:09;;;;;;;9.23;8.57;;;3.90;99.90;;;;;;4992386;28;20188;-65
2021/12/03 09:07:36;;;;;;;9.83;8.97;;;4.00;99.90;;;;;;4992559;28;20180;-66
2021/12/03 09:10:04;;;;;;;8.57;7.87;;;4.10;99.90;;;;;;4992435;28;20632;-66
2021/12/03 09:12:30;;;;;;;8.00;7.33;;;4.20;99.90;;;;;;4995228;28;20226;-66
2021/12/03 09:14:59;;;;;;;10.27;8.73;;;4.30;99.90;;;;;;5011858;28;20195;-65
2021/12/03 09:18:30;;;;;;;8.57;7.93;;;4.40;99.90;;;;;;5011366;28;20175;-66
2021/12/03 09:23:12;;;;;;;8.03;7.33;;;4.70;99.90;;;;;;5011310;28;20176;-66
2021/12/03 09:25:45;;;;;;;9.30;7.70;;;4.70;99.90;;;;;;5011558;28;20286;-66
2021/12/03 09:28:12;;;;;;;8.20;7.70;;;4.80;99.90;;;;;;5011923;28;20253;-65
2021/12/03 09:30:41;;;;;;;8.00;7.43;;;4.70;99.90;;;;;;5011439;28;20259;-66
2021/12/03 09:33:09;;;;;;;7.70;7.30;;;4.70;99.90;;;;;;5011336;28;20278;-66
2021/12/03 09:35:43;;;;;;;7.87;7.27;;;4.70;99.90;;;;;;5011530;28;20625;-65
2021/12/03 09:38:09;;;;;;;8.33;7.80;;;4.70;99.90;;;;;;5003682;28;20252;-67
2021/12/03 09:40:36;;;;;;;8.00;7.50;;;4.70;99.90;;;;;;5011599;28;20251;-66
2021/12/03 09:43:04;;;;;;;10.13;9.17;;;4.80;99.90;;;;;;5010913;28;20191;-65
2021/12/03 09:45:30;;;;;;;8.40;7.70;;;4.90;99.90;;;;;;5011811;28;20187;-66
2021/12/03 09:47:57;;;;;;;9.07;8.20;;;4.90;99.90;;;;;;5011238;28;20259;-66
2021/12/03 09:50:23;;;;;;;8.37;7.63;;;5.00;99.90;;;;;;5010463;28;20270;-66
2021/12/03 09:55:33;;;;;;;16.87;15.50;;;5.10;99.90;;;;;;5011273;28;20196;-65
2021/12/03 10:00:51;;;;;;;8.57;7.77;;;5.10;99.90;;;;;;5015443;28;20186;-66
2021/12/03 10:03:43;;;;;;;8.77;7.83;;;5.20;99.90;;;;;;4997700;28;20267;-67
2021/12/03 10:14:35;;;;;;;8.67;7.40;;;5.10;99.90;;;;;;4995562;28;20205;-66
2021/12/03 10:28:18;;;;;;;8.13;7.63;;;5.30;99.90;;;;;;5014618;28;20187;-66
2021/12/03 10:39:10;;;;;;;10.93;8.40;;;5.30;99.90;;;;;;5014332;28;20188;-66
2021/12/03 10:42:04;;;;;;;10.00;7.53;;;5.40;99.90;;;;;;5014698;28;20175;-64
2021/12/03 10:44:55;;;;;;;9.07;7.53;;;5.40;99.90;;;;;;5014268;28;20203;-68
2021/12/03 11:07:17;;;;;;;7.27;6.77;;;5.60;99.90;;;;;;5013988;28;20168;-65
2021/12/03 11:18:12;;;;;;;8.03;7.43;;;5.50;99.90;;;;;;5013768;28;20218;-66
2021/12/03 11:21:29;;;;;;;7.57;6.87;;;5.50;99.90;;;;;;5013466;28;20207;-65
2021/12/03 11:31:34;;;;;;;7.20;6.77;;;5.40;99.90;;;;;;4994206;28;20256;-67
2021/12/03 12:15:37;;;;;;;7.40;6.93;;;5.70;99.90;;;;;;4975397;28;20676;-66
2021/12/03 14:37:48;;;;;;;7.63;7.23;;;5.50;99.90;;;;;;5011093;28;20172;-65
2021/12/03 14:40:32;;;;;;;7.67;7.27;;;5.50;99.90;;;;;;5011208;28;20161;-65
2021/12/03 14:54:25;;;;;;;7.90;7.40;;;5.40;99.90;;;;;;5025195;28;20298;-65
2021/12/03 14:57:13;;;;;;;7.40;7.00;;;5.40;99.90;;;;;;4994768;28;20550;-65
2021/12/03 14:59:58;;;;;;;8.67;8.17;;;5.40;99.90;;;;;;5006580;28;20180;-65
2021/12/03 15:02:41;;;;;;;7.70;7.30;;;5.30;99.90;;;;;;5011642;28;20271;-65
2021/12/03 15:07:49;;;;;;;7.73;7.30;;;5.30;99.90;;;;;;5031379;28;20366;-65
2021/12/03 15:10:35;;;;;;;7.60;7.20;;;5.20;99.90;;;;;;5014301;28;20279;-65
2021/12/03 15:21:18;;;;;;;8.10;7.60;;;4.80;99.90;;;;;;5033386;28;20528;-65
2021/12/03 15:29:58;;;;;;;8.43;7.97;;;4.60;99.90;;;;;;4952910;29;20182;-65
2021/12/03 15:32:31;;;;;;;7.77;7.37;;;4.60;99.90;;;;;;5004870;28;20246;-65
2021/12/03 15:37:51;;;;;;;8.10;7.60;;;4.50;99.90;;;;;;5020173;28;20187;-65
2021/12/03 16:04:36;;;;;;;9.20;8.53;;;4.10;99.90;;;;;;5012958;28;20191;-63
2021/12/03 16:12:02;;;;;;;9.50;8.60;;;4.20;99.90;;;;;;5015127;28;20192;-63
2021/12/03 16:14:46;;;;;;;8.57;7.97;;;4.30;99.90;;;;;;5019832;28;20231;-65
2021/12/03 16:51:41;;;;;;;7.30;7.00;;;5.10;99.90;;;;;;4993266;28;20681;-65
2021/12/03 16:54:11;;;;;;;7.57;7.17;;;5.10;99.90;;;;;;4993734;28;20204;-64
2021/12/03 16:56:47;;;;;;;7.43;7.03;;;5.10;99.90;;;;;;5031289;28;20171;-64
2021/12/03 16:59:13;;;;;;;6.90;6.50;;;5.10;99.90;;;;;;5030739;28;20544;-63
2021/12/03 17:01:57;;;;;;;7.67;7.27;;;5.10;99.90;;;;;;5012266;28;20208;-65
2021/12/03 17:10:03;;;;;;;7.50;7.10;;;5.20;99.90;;;;;;5029051;28;20181;-64
2021/12/03 17:50:09;;;;;;;8.57;7.87;;;4.70;99.90;;;;;;5011529;28;20160;-65
2021/12/03 17:53:02;;;;;;;7.87;7.37;;;4.60;99.90;;;;;;5027090;28;20715;-65
2021/12/03 17:58:21;;;;;;;9.73;9.00;;;4.50;99.90;;;;;;5015937;28;20258;-62
2021/12/03 18:00:55;;;;;;;8.77;8.27;;;4.50;99.90;;;;;;5030593;28;20217;-64
2021/12/03 18:03:32;;;;;;;7.60;7.20;;;4.40;99.90;;;;;;5022569;28;20191;-64
2021/12/03 18:06:30;;;;;;;9.77;9.13;;;4.40;99.90;;;;;;5030342;28;20242;-62
2021/12/03 18:09:09;;;;;;;8.57;7.87;;;4.40;99.90;;;;;;5012061;28;20606;-63
2021/12/03 18:57:25;;;;;;;8.83;8.33;;;4.30;99.90;;;;;;5026898;28;20233;-61
2021/12/03 18:59:57;;;;;;;9.20;8.30;;;4.30;99.90;;;;;;5034445;28;20175;-62
2021/12/03 19:02:25;;;;;;;8.87;8.27;;;4.30;99.90;;;;;;5021555;28;20230;-63
2021/12/03 19:05:45;;;;;;;9.10;8.50;;;4.30;99.90;;;;;;5019035;28;20210;-63
2021/12/03 19:07:47;;;;;;;9.50;8.90;;;4.40;99.90;;;;;;5023521;28;20298;-63
2021/12/03 19:10:23;;;;;;;9.53;8.33;;;4.40;99.90;;;;;;5026635;28;20203;-61
2021/12/03 19:13:08;;;;;;;8.33;7.63;;;4.40;99.90;;;;;;5013911;28;20874;-63
2021/12/03 19:15:35;;;;;;;9.07;8.43;;;4.40;99.90;;;;;;5013524;28;20234;-63
2021/12/03 19:18:02;;;;;;;8.27;7.70;;;4.40;99.90;;;;;;5014039;28;20227;-63
2021/12/03 19:20:32;;;;;;;7.80;7.40;;;4.40;99.90;;;;;;5017100;28;20179;-63
2021/12/03 19:22:58;;;;;;;8.10;7.67;;;4.40;99.90;;;;;;5013708;28;20231;-63
2021/12/03 19:25:24;;;;;;;8.07;7.60;;;4.40;99.90;;;;;;5024492;28;20603;-63
2021/12/03 19:27:50;;;;;;;8.50;8.00;;;4.40;99.90;;;;;;5033677;28;20552;-62
2021/12/03 19:30:16;;;;;;;9.13;8.20;;;4.40;99.90;;;;;;5023799;28;20312;-63
2021/12/03 19:32:42;;;;;;;8.57;7.97;;;4.40;99.90;;;;;;5014564;28;20211;-63
2021/12/03 19:35:09;;;;;;;9.03;8.33;;;4.40;99.90;;;;;;5032337;28;20593;-63
2021/12/03 19:37:36;;;;;;;8.90;8.40;;;4.40;99.90;;;;;;5033594;28;20180;-63
2021/12/03 19:40:08;;;;;;;9.07;8.57;;;4.40;99.90;;;;;;5013681;28;20587;-63
2021/12/03 19:45:13;;;;;;;7.60;7.20;;;4.50;99.90;;;;;;4994065;28;20291;-63
2021/12/03 19:53:09;;;;;;;7.50;7.20;;;4.60;99.90;;;;;;4995953;28;20208;-62
2021/12/03 19:55:38;;;;;;;7.70;7.30;;;4.60;99.90;;;;;;5033687;28;20198;-64
2021/12/03 19:58:09;;;;;;;8.03;7.47;;;4.60;99.90;;;;;;5031495;28;20195;-64
2021/12/03 20:00:37;;;;;;;7.50;7.10;;;4.70;99.90;;;;;;5013471;28;20229;-63
2021/12/03 20:03:03;;;;;;;8.47;8.07;;;4.70;99.90;;;;;;5030680;28;20313;-63
2021/12/03 20:05:29;;;;;;;8.20;7.87;;;4.80;99.90;;;;;;5033087;28;20626;-63
2021/12/03 20:07:56;;;;;;;9.97;9.37;;;4.80;99.90;;;;;;5016316;28;20184;-64
2021/12/03 20:10:24;;;;;;;7.80;7.40;;;4.80;99.90;;;;;;5013382;28;20176;-64
2021/12/03 20:12:51;;;;;;;7.87;7.37;;;4.90;99.90;;;;;;5027562;28;20207;-64
2021/12/03 20:15:31;;;;;;;7.67;7.37;;;4.90;99.90;;;;;;5033031;28;20196;-63
2021/12/03 20:18:02;;;;;;;7.60;7.20;;;4.90;99.90;;;;;;5017154;28;20274;-63